sensor_id;sensor_type;location;lat;lon;timestamp;temperature;humidity
19152;DHT22;9708;53.114;9.388;2023-02-28T00:00:23;2.10;99.90
19152;DHT22;9708;53.114;9.388;2023-02-28T00:03:14;2.10;99.90
19152;DHT22;9708;53.114;9.388;2023-02-28T00:06:07;2.10;99.90
19152;DHT22;9708;53.114;9.388;2023-02-28T00:08:58;2.10;99.90
19152;DHT22;9708;53.114;9.388;2023-02-28T00:11:49;2.10;99.90
19152;DHT22;9708;53.114;9.388;2023-02-28T00:14:41;2.00;99.90
19152;DHT22;9708;53.114;9.388;2023-02-28T00:17:32;1.90;99.90
19152;DHT22;9708;53.114;9.388;2023-02-28T00:20:23;1.80;99.90
19152;DHT22;9708;53.114;9.388;2023-02-28T00:23:14;1.70;99.90
19152;DHT22;9708;53.114;9.388;2023-02-28T00:26:05;1.60;99.90
19152;DHT22;9708;53.114;9.388;2023-02-28T00:28:56;1.50;99.90
19152;DHT22;9708;53.114;9.388;2023-02-28T00:31:48;1.40;99.90
19152;DHT22;9708;53.114;9.388;2023-02-28T00:34:39;1.30;99.90
19152;DHT22;9708;53.114;9.388;2023-02-28T00:37:30;1.10;99.90
19152;DHT22;9708;53.114;9.388;2023-02-28T00:40:21;1.00;99.90
19152;DHT22;9708;53.114;9.388;2023-02-28T00:43:12;1.00;99.90
19152;DHT22;9708;53.114;9.388;2023-02-28T00:46:04;0.90;99.90
19152;DHT22;9708;53.114;9.388;2023-02-28T00:48:56;0.90;99.90
19152;DHT22;9708;53.114;9.388;2023-02-28T00:51:47;0.80;99.90
19152;DHT22;9708;53.114;9.388;2023-02-28T00:54:38;1.00;99.90
19152;DHT22;9708;53.114;9.388;2023-02-28T00:57:29;0.90;99.90
19152;DHT22;9708;53.114;9.388;2023-02-28T01:00:20;1.00;99.90
19152;DHT22;9708;53.114;9.388;2023-02-28T01:03:11;0.90;99.90
19152;DHT22;9708;53.114;9.388;2023-02-28T01:06:04;0.80;99.90
19152;DHT22;9708;53.114;9.388;2023-02-28T01:08:55;0.80;99.90
19152;DHT22;9708;53.114;9.388;2023-02-28T01:11:46;0.80;99.90
19152;DHT22;9708;53.114;9.388;2023-02-28T01:14:37;0.70;99.90
19152;DHT22;9708;53.114;9.388;2023-02-28T01:17:28;0.50;99.90
19152;DHT22;9708;53.114;9.388;2023-02-28T01:20:19;0.50;99.90
19152;DHT22;9708;53.114;9.388;2023-02-28T01:23:11;0.50;99.90
19152;DHT22;9708;53.114;9.388;2023-02-28T01:26:06;0.40;99.90
19152;DHT22;9708;53.114;9.388;2023-02-28T01:28:57;0.40;99.90
19152;DHT22;9708;53.114;9.388;2023-02-28T01:31:48;0.30;99.90
19152;DHT22;9708;53.114;9.388;2023-02-28T01:34:39;0.30;99.90
19152;DHT22;9708;53.114;9.388;2023-02-28T01:37:30;0.20;99.90
19152;DHT22;9708;53.114;9.388;2023-02-28T01:40:22;0.20;99.90
19152;DHT22;9708;53.114;9.388;2023-02-28T01:43:20;0.10;99.90
19152;DHT22;9708;53.114;9.388;2023-02-28T01:46:13;0.10;99.90
19152;DHT22;9708;53.114;9.388;2023-02-28T01:49:07;0.10;99.90
19152;DHT22;9708;53.114;9.388;2023-02-28T01:51:59;0.00;99.90
19152;DHT22;9708;53.114;9.388;2023-02-28T01:54:52;0.00;99.90
19152;DHT22;9708;53.114;9.388;2023-02-28T01:57:49;-0.10;99.90
19152;DHT22;9708;53.114;9.388;2023-02-28T02:00:41;-0.20;99.90
19152;DHT22;9708;53.114;9.388;2023-02-28T02:03:32;-0.20;99.90
19152;DHT22;9708;53.114;9.388;2023-02-28T02:06:30;-0.20;99.90
19152;DHT22;9708;53.114;9.388;2023-02-28T02:09:21;-0.20;99.90
19152;DHT22;9708;53.114;9.388;2023-02-28T02:12:21;-0.20;99.90
19152;DHT22;9708;53.114;9.388;2023-02-28T02:15:22;-0.20;99.90
19152;DHT22;9708;53.114;9.388;2023-02-28T02:18:19;-0.20;99.90
19152;DHT22;9708;53.114;9.388;2023-02-28T02:24:56;-0.30;99.90
19152;DHT22;9708;53.114;9.388;2023-02-28T02:35:00;-0.50;99.90
19152;DHT22;9708;53.114;9.388;2023-02-28T02:38:00;-0.50;99.90
19152;DHT22;9708;53.114;9.388;2023-02-28T02:41:02;-0.50;99.90
19152;DHT22;9708;53.114;9.388;2023-02-28T02:43:57;-0.60;99.90
19152;DHT22;9708;53.114;9.388;2023-02-28T02:46:55;-0.50;99.90
19152;DHT22;9708;53.114;9.388;2023-02-28T02:49:50;-0.60;99.90
19152;DHT22;9708;53.114;9.388;2023-02-28T02:52:45;-0.80;99.90
19152;DHT22;9708;53.114;9.388;2023-02-28T02:55:39;-0.80;99.90
19152;DHT22;9708;53.114;9.388;2023-02-28T02:58:35;-0.80;99.90
19152;DHT22;9708;53.114;9.388;2023-02-28T03:01:28;-0.80;99.90
19152;DHT22;9708;53.114;9.388;2023-02-28T03:04:22;-0.70;99.90
19152;DHT22;9708;53.114;9.388;2023-02-28T03:07:14;-0.80;99.90
19152;DHT22;9708;53.114;9.388;2023-02-28T03:10:29;-0.90;99.90
19152;DHT22;9708;53.114;9.388;2023-02-28T03:13:36;-1.00;99.90
19152;DHT22;9708;53.114;9.388;2023-02-28T03:16:49;-0.90;99.90
19152;DHT22;9708;53.114;9.388;2023-02-28T03:19:53;-1.00;99.90
19152;DHT22;9708;53.114;9.388;2023-02-28T03:22:52;-1.00;99.90
19152;DHT22;9708;53.114;9.388;2023-02-28T03:25:54;-1.00;99.90
19152;DHT22;9708;53.114;9.388;2023-02-28T03:28:52;-1.00;99.90
19152;DHT22;9708;53.114;9.388;2023-02-28T03:31:49;-1.10;99.90
19152;DHT22;9708;53.114;9.388;2023-02-28T03:34:43;-1.00;99.90
19152;DHT22;9708;53.114;9.388;2023-02-28T03:37:39;-1.20;99.90
19152;DHT22;9708;53.114;9.388;2023-02-28T03:40:33;-1.20;99.90
19152;DHT22;9708;53.114;9.388;2023-02-28T03:43:29;-1.20;99.90
19152;DHT22;9708;53.114;9.388;2023-02-28T03:46:01;-1.20;99.90
19152;DHT22;9708;53.114;9.388;2023-02-28T03:48:34;-1.20;99.90
19152;DHT22;9708;53.114;9.388;2023-02-28T03:51:07;-1.20;99.90
19152;DHT22;9708;53.114;9.388;2023-02-28T03:53:38;-1.20;99.90
19152;DHT22;9708;53.114;9.388;2023-02-28T03:56:11;-1.30;99.90
19152;DHT22;9708;53.114;9.388;2023-02-28T03:58:43;-1.20;99.90
19152;DHT22;9708;53.114;9.388;2023-02-28T04:01:14;-1.30;99.90
19152;DHT22;9708;53.114;9.388;2023-02-28T04:03:42;-1.30;99.90
19152;DHT22;9708;53.114;9.388;2023-02-28T04:06:15;-1.30;99.90
19152;DHT22;9708;53.114;9.388;2023-02-28T04:08:42;-1.50;99.90
19152;DHT22;9708;53.114;9.388;2023-02-28T04:11:18;-1.50;99.90
19152;DHT22;9708;53.114;9.388;2023-02-28T04:13:47;-1.40;99.90
19152;DHT22;9708;53.114;9.388;2023-02-28T04:16:15;-1.50;99.90
19152;DHT22;9708;53.114;9.388;2023-02-28T04:18:42;-1.50;99.90
19152;DHT22;9708;53.114;9.388;2023-02-28T04:21:09;-1.40;99.90
19152;DHT22;9708;53.114;9.388;2023-02-28T04:23:36;-1.40;99.90
19152;DHT22;9708;53.114;9.388;2023-02-28T04:26:03;-1.40;99.90
19152;DHT22;9708;53.114;9.388;2023-02-28T04:28:31;-1.40;99.90
19152;DHT22;9708;53.114;9.388;2023-02-28T04:31:01;-1.50;99.90
19152;DHT22;9708;53.114;9.388;2023-02-28T04:33:28;-1.50;99.90
19152;DHT22;9708;53.114;9.388;2023-02-28T04:35:59;-1.60;99.90
19152;DHT22;9708;53.114;9.388;2023-02-28T04:38:26;-1.60;99.90
19152;DHT22;9708;53.114;9.388;2023-02-28T04:40:53;-1.60;99.90
19152;DHT22;9708;53.114;9.388;2023-02-28T04:43:20;-1.60;99.90
19152;DHT22;9708;53.114;9.388;2023-02-28T04:45:46;-1.70;99.90
19152;DHT22;9708;53.114;9.388;2023-02-28T04:48:15;-1.70;99.90
19152;DHT22;9708;53.114;9.388;2023-02-28T04:50:41;-1.70;99.90
19152;DHT22;9708;53.114;9.388;2023-02-28T04:53:09;-1.70;99.90
19152;DHT22;9708;53.114;9.388;2023-02-28T04:55:35;-1.70;99.90
19152;DHT22;9708;53.114;9.388;2023-02-28T04:58:05;-1.70;99.90
19152;DHT22;9708;53.114;9.388;2023-02-28T05:00:32;-1.80;99.90
19152;DHT22;9708;53.114;9.388;2023-02-28T05:02:59;-1.80;99.90
19152;DHT22;9708;53.114;9.388;2023-02-28T05:05:27;-1.80;99.90
19152;DHT22;9708;53.114;9.388;2023-02-28T05:07:54;-1.90;99.90
19152;DHT22;9708;53.114;9.388;2023-02-28T05:10:21;-1.80;99.90
19152;DHT22;9708;53.114;9.388;2023-02-28T05:12:48;-1.90;99.90
19152;DHT22;9708;53.114;9.388;2023-02-28T05:15:15;-1.90;99.90
19152;DHT22;9708;53.114;9.388;2023-02-28T05:17:43;-1.90;99.90
19152;DHT22;9708;53.114;9.388;2023-02-28T05:20:10;-1.90;99.90
19152;DHT22;9708;53.114;9.388;2023-02-28T05:22:40;-1.90;99.90
19152;DHT22;9708;53.114;9.388;2023-02-28T05:25:10;-2.00;99.90
19152;DHT22;9708;53.114;9.388;2023-02-28T05:27:38;-1.90;99.90
19152;DHT22;9708;53.114;9.388;2023-02-28T05:30:06;-1.90;99.90
19152;DHT22;9708;53.114;9.388;2023-02-28T05:32:35;-1.90;99.90
19152;DHT22;9708;53.114;9.388;2023-02-28T05:35:03;-2.00;99.90
19152;DHT22;9708;53.114;9.388;2023-02-28T05:37:29;-2.00;99.90
19152;DHT22;9708;53.114;9.388;2023-02-28T05:39:57;-2.00;99.90
19152;DHT22;9708;53.114;9.388;2023-02-28T05:42:24;-2.10;99.90
19152;DHT22;9708;53.114;9.388;2023-02-28T05:44:51;-2.10;99.90
19152;DHT22;9708;53.114;9.388;2023-02-28T05:47:18;-2.10;99.90
19152;DHT22;9708;53.114;9.388;2023-02-28T05:49:45;-2.10;99.90
19152;DHT22;9708;53.114;9.388;2023-02-28T05:52:11;-2.10;99.90
19152;DHT22;9708;53.114;9.388;2023-02-28T05:54:38;-2.20;99.90
19152;DHT22;9708;53.114;9.388;2023-02-28T05:57:07;-2.20;99.90
19152;DHT22;9708;53.114;9.388;2023-02-28T05:59:33;-2.20;99.90
19152;DHT22;9708;53.114;9.388;2023-02-28T06:02:05;-2.20;99.90
19152;DHT22;9708;53.114;9.388;2023-02-28T06:04:31;-2.20;99.90
19152;DHT22;9708;53.114;9.388;2023-02-28T06:06:58;-2.20;99.90
19152;DHT22;9708;53.114;9.388;2023-02-28T06:09:25;-2.10;99.90
19152;DHT22;9708;53.114;9.388;2023-02-28T06:11:52;-2.20;99.90
19152;DHT22;9708;53.114;9.388;2023-02-28T06:14:20;-2.20;99.90
19152;DHT22;9708;53.114;9.388;2023-02-28T06:16:47;-2.20;99.90
19152;DHT22;9708;53.114;9.388;2023-02-28T06:19:14;-2.20;99.90
19152;DHT22;9708;53.114;9.388;2023-02-28T06:21:41;-2.20;99.90
19152;DHT22;9708;53.114;9.388;2023-02-28T06:24:08;-2.20;99.90
19152;DHT22;9708;53.114;9.388;2023-02-28T06:26:35;-2.20;99.90
19152;DHT22;9708;53.114;9.388;2023-02-28T06:29:02;-2.20;99.90
19152;DHT22;9708;53.114;9.388;2023-02-28T06:31:30;-2.20;99.90
19152;DHT22;9708;53.114;9.388;2023-02-28T06:33:57;-2.20;99.90
19152;DHT22;9708;53.114;9.388;2023-02-28T06:36:24;-2.10;99.90
19152;DHT22;9708;53.114;9.388;2023-02-28T06:38:50;-2.10;99.90
19152;DHT22;9708;53.114;9.388;2023-02-28T06:41:21;-2.00;99.90
19152;DHT22;9708;53.114;9.388;2023-02-28T06:43:47;-2.00;99.90
19152;DHT22;9708;53.114;9.388;2023-02-28T06:46:14;-2.00;99.90
19152;DHT22;9708;53.114;9.388;2023-02-28T06:48:43;-2.00;99.90
19152;DHT22;9708;53.114;9.388;2023-02-28T06:51:12;-2.00;99.90
19152;DHT22;9708;53.114;9.388;2023-02-28T06:53:40;-2.00;99.90
19152;DHT22;9708;53.114;9.388;2023-02-28T06:56:08;-1.90;99.90
19152;DHT22;9708;53.114;9.388;2023-02-28T06:58:35;-1.80;99.90
19152;DHT22;9708;53.114;9.388;2023-02-28T07:01:03;-1.70;99.90
19152;DHT22;9708;53.114;9.388;2023-02-28T07:03:30;-1.70;99.90
19152;DHT22;9708;53.114;9.388;2023-02-28T07:05:59;-1.70;99.90
19152;DHT22;9708;53.114;9.388;2023-02-28T07:08:26;-1.60;99.90
19152;DHT22;9708;53.114;9.388;2023-02-28T07:10:54;-1.50;99.90
19152;DHT22;9708;53.114;9.388;2023-02-28T07:13:21;-1.50;99.90
19152;DHT22;9708;53.114;9.388;2023-02-28T07:15:53;-1.30;99.90
19152;DHT22;9708;53.114;9.388;2023-02-28T07:18:20;-1.20;99.90
19152;DHT22;9708;53.114;9.388;2023-02-28T07:20:47;-0.50;99.90
19152;DHT22;9708;53.114;9.388;2023-02-28T07:23:15;0.60;99.90
19152;DHT22;9708;53.114;9.388;2023-02-28T07:25:42;1.80;99.90
19152;DHT22;9708;53.114;9.388;2023-02-28T07:28:09;3.00;99.90
19152;DHT22;9708;53.114;9.388;2023-02-28T07:30:36;3.80;99.90
19152;DHT22;9708;53.114;9.388;2023-02-28T07:33:03;3.90;99.90
19152;DHT22;9708;53.114;9.388;2023-02-28T07:35:29;3.90;99.90
19152;DHT22;9708;53.114;9.388;2023-02-28T07:37:57;4.60;99.90
19152;DHT22;9708;53.114;9.388;2023-02-28T07:40:26;5.60;99.90
19152;DHT22;9708;53.114;9.388;2023-02-28T07:42:53;6.00;99.90
19152;DHT22;9708;53.114;9.388;2023-02-28T07:45:20;6.40;99.90
19152;DHT22;9708;53.114;9.388;2023-02-28T07:47:47;6.40;99.90
19152;DHT22;9708;53.114;9.388;2023-02-28T07:50:15;7.00;99.90
19152;DHT22;9708;53.114;9.388;2023-02-28T07:52:41;7.20;99.90
19152;DHT22;9708;53.114;9.388;2023-02-28T07:55:09;7.00;99.90
19152;DHT22;9708;53.114;9.388;2023-02-28T07:57:38;7.10;99.90
19152;DHT22;9708;53.114;9.388;2023-02-28T08:00:06;7.30;99.90
19152;DHT22;9708;53.114;9.388;2023-02-28T08:02:35;7.70;99.90
19152;DHT22;9708;53.114;9.388;2023-02-28T08:05:02;8.10;99.90
19152;DHT22;9708;53.114;9.388;2023-02-28T08:07:29;8.40;99.90
19152;DHT22;9708;53.114;9.388;2023-02-28T08:09:56;8.60;99.90
19152;DHT22;9708;53.114;9.388;2023-02-28T08:12:22;8.50;99.90
19152;DHT22;9708;53.114;9.388;2023-02-28T08:14:51;8.50;99.90
19152;DHT22;9708;53.114;9.388;2023-02-28T08:17:17;8.40;99.90
19152;DHT22;9708;53.114;9.388;2023-02-28T08:19:45;8.60;99.90
19152;DHT22;9708;53.114;9.388;2023-02-28T08:22:12;9.20;99.90
19152;DHT22;9708;53.114;9.388;2023-02-28T08:24:40;10.00;99.90
19152;DHT22;9708;53.114;9.388;2023-02-28T08:27:07;10.20;99.90
19152;DHT22;9708;53.114;9.388;2023-02-28T08:29:36;9.90;99.90
19152;DHT22;9708;53.114;9.388;2023-02-28T08:32:04;9.50;99.90
19152;DHT22;9708;53.114;9.388;2023-02-28T08:34:31;9.90;99.90
19152;DHT22;9708;53.114;9.388;2023-02-28T08:36:58;10.70;99.90
19152;DHT22;9708;53.114;9.388;2023-02-28T08:39:25;10.60;99.90
19152;DHT22;9708;53.114;9.388;2023-02-28T08:41:52;11.90;99.90
19152;DHT22;9708;53.114;9.388;2023-02-28T08:44:19;11.90;99.90
19152;DHT22;9708;53.114;9.388;2023-02-28T08:46:46;12.30;99.90
19152;DHT22;9708;53.114;9.388;2023-02-28T08:49:14;12.40;99.90
19152;DHT22;9708;53.114;9.388;2023-02-28T08:51:41;13.20;99.90
19152;DHT22;9708;53.114;9.388;2023-02-28T08:54:08;12.60;99.90
19152;DHT22;9708;53.114;9.388;2023-02-28T08:56:38;13.20;99.90
19152;DHT22;9708;53.114;9.388;2023-02-28T08:59:04;13.50;99.90
19152;DHT22;9708;53.114;9.388;2023-02-28T09:01:31;13.30;99.90
19152;DHT22;9708;53.114;9.388;2023-02-28T09:03:58;12.60;99.90
19152;DHT22;9708;53.114;9.388;2023-02-28T09:06:26;12.30;99.90
19152;DHT22;9708;53.114;9.388;2023-02-28T09:08:56;12.60;99.90
19152;DHT22;9708;53.114;9.388;2023-02-28T09:11:24;11.70;99.90
19152;DHT22;9708;53.114;9.388;2023-02-28T09:13:51;11.70;99.90
19152;DHT22;9708;53.114;9.388;2023-02-28T09:16:18;12.80;99.90
19152;DHT22;9708;53.114;9.388;2023-02-28T09:18:45;12.40;99.90
19152;DHT22;9708;53.114;9.388;2023-02-28T09:21:14;12.80;99.90
19152;DHT22;9708;53.114;9.388;2023-02-28T09:23:43;12.40;99.90
19152;DHT22;9708;53.114;9.388;2023-02-28T09:26:13;12.10;99.90
19152;DHT22;9708;53.114;9.388;2023-02-28T09:28:40;13.50;99.90
19152;DHT22;9708;53.114;9.388;2023-02-28T09:31:12;14.30;99.90
19152;DHT22;9708;53.114;9.388;2023-02-28T09:33:40;14.40;99.90
19152;DHT22;9708;53.114;9.388;2023-02-28T09:36:07;14.30;99.90
19152;DHT22;9708;53.114;9.388;2023-02-28T09:38:34;13.50;99.90
19152;DHT22;9708;53.114;9.388;2023-02-28T09:41:08;13.80;99.90
19152;DHT22;9708;53.114;9.388;2023-02-28T09:43:40;14.50;99.90
19152;DHT22;9708;53.114;9.388;2023-02-28T09:46:19;14.50;99.90
19152;DHT22;9708;53.114;9.388;2023-02-28T09:48:48;13.70;99.90
19152;DHT22;9708;53.114;9.388;2023-02-28T09:51:29;12.90;99.90
19152;DHT22;9708;53.114;9.388;2023-02-28T09:53:56;12.70;99.90
19152;DHT22;9708;53.114;9.388;2023-02-28T09:56:29;13.00;99.90
19152;DHT22;9708;53.114;9.388;2023-02-28T09:58:59;13.30;99.90
19152;DHT22;9708;53.114;9.388;2023-02-28T10:01:31;13.50;99.90
19152;DHT22;9708;53.114;9.388;2023-02-28T10:04:05;13.70;99.90
19152;DHT22;9708;53.114;9.388;2023-02-28T10:06:41;14.50;99.90
19152;DHT22;9708;53.114;9.388;2023-02-28T10:09:11;13.80;99.90
19152;DHT22;9708;53.114;9.388;2023-02-28T10:11:41;13.40;99.90
19152;DHT22;9708;53.114;9.388;2023-02-28T10:14:13;13.70;99.90
19152;DHT22;9708;53.114;9.388;2023-02-28T10:16:44;13.70;99.90
19152;DHT22;9708;53.114;9.388;2023-02-28T10:19:21;13.90;99.90
19152;DHT22;9708;53.114;9.388;2023-02-28T10:21:55;15.00;99.90
19152;DHT22;9708;53.114;9.388;2023-02-28T10:24:28;14.50;99.90
19152;DHT22;9708;53.114;9.388;2023-02-28T10:27:00;13.80;99.90
19152;DHT22;9708;53.114;9.388;2023-02-28T10:29:28;13.60;99.90
19152;DHT22;9708;53.114;9.388;2023-02-28T10:32:01;13.50;99.90
19152;DHT22;9708;53.114;9.388;2023-02-28T10:34:29;13.40;99.90
19152;DHT22;9708;53.114;9.388;2023-02-28T10:36:56;12.60;99.90
19152;DHT22;9708;53.114;9.388;2023-02-28T10:39:37;12.40;99.90
19152;DHT22;9708;53.114;9.388;2023-02-28T10:42:20;12.60;99.90
19152;DHT22;9708;53.114;9.388;2023-02-28T10:44:47;13.00;99.90
19152;DHT22;9708;53.114;9.388;2023-02-28T10:47:16;13.20;99.90
19152;DHT22;9708;53.114;9.388;2023-02-28T10:49:47;13.30;99.90
19152;DHT22;9708;53.114;9.388;2023-02-28T10:52:33;13.00;99.90
19152;DHT22;9708;53.114;9.388;2023-02-28T10:55:15;12.80;99.90
19152;DHT22;9708;53.114;9.388;2023-02-28T10:57:43;12.90;99.90
19152;DHT22;9708;53.114;9.388;2023-02-28T11:00:15;13.00;99.90
19152;DHT22;9708;53.114;9.388;2023-02-28T11:02:42;12.90;99.90
19152;DHT22;9708;53.114;9.388;2023-02-28T11:05:27;13.00;99.90
19152;DHT22;9708;53.114;9.388;2023-02-28T11:07:56;13.30;99.90
19152;DHT22;9708;53.114;9.388;2023-02-28T11:10:27;13.60;99.90
19152;DHT22;9708;53.114;9.388;2023-02-28T11:12:57;13.70;99.90
19152;DHT22;9708;53.114;9.388;2023-02-28T11:15:27;13.60;99.90
19152;DHT22;9708;53.114;9.388;2023-02-28T11:17:55;14.40;99.90
19152;DHT22;9708;53.114;9.388;2023-02-28T11:20:25;14.20;99.90
19152;DHT22;9708;53.114;9.388;2023-02-28T11:22:53;15.00;99.90
19152;DHT22;9708;53.114;9.388;2023-02-28T11:25:23;15.00;97.70
19152;DHT22;9708;53.114;9.388;2023-02-28T11:27:51;15.30;97.70
19152;DHT22;9708;53.114;9.388;2023-02-28T11:30:29;14.10;98.80
19152;DHT22;9708;53.114;9.388;2023-02-28T11:32:57;14.00;99.20
19152;DHT22;9708;53.114;9.388;2023-02-28T11:35:27;14.00;98.60
19152;DHT22;9708;53.114;9.388;2023-02-28T11:37:55;14.20;98.70
19152;DHT22;9708;53.114;9.388;2023-02-28T11:40:28;14.10;98.70
19152;DHT22;9708;53.114;9.388;2023-02-28T11:43:08;14.60;98.10
19152;DHT22;9708;53.114;9.388;2023-02-28T11:45:49;15.30;96.80
19152;DHT22;9708;53.114;9.388;2023-02-28T11:48:25;14.60;95.10
19152;DHT22;9708;53.114;9.388;2023-02-28T11:51:06;15.20;96.30
19152;DHT22;9708;53.114;9.388;2023-02-28T11:53:46;14.60;97.20
19152;DHT22;9708;53.114;9.388;2023-02-28T11:56:19;14.80;94.90
19152;DHT22;9708;53.114;9.388;2023-02-28T11:58:53;14.00;99.20
19152;DHT22;9708;53.114;9.388;2023-02-28T12:01:36;14.80;98.60
19152;DHT22;9708;53.114;9.388;2023-02-28T12:04:17;15.60;96.90
19152;DHT22;9708;53.114;9.388;2023-02-28T12:06:55;15.20;96.30
19152;DHT22;9708;53.114;9.388;2023-02-28T12:09:52;15.20;95.70
19152;DHT22;9708;53.114;9.388;2023-02-28T12:12:33;14.80;98.00
19152;DHT22;9708;53.114;9.388;2023-02-28T12:15:49;15.30;95.60
19152;DHT22;9708;53.114;9.388;2023-02-28T12:18:30;15.30;96.00
19152;DHT22;9708;53.114;9.388;2023-02-28T12:21:06;16.00;95.20
19152;DHT22;9708;53.114;9.388;2023-02-28T12:23:48;16.30;96.30
19152;DHT22;9708;53.114;9.388;2023-02-28T12:26:24;16.00;93.70
19152;DHT22;9708;53.114;9.388;2023-02-28T12:29:02;15.60;94.20
19152;DHT22;9708;53.114;9.388;2023-02-28T12:31:35;15.70;95.60
19152;DHT22;9708;53.114;9.388;2023-02-28T12:34:07;16.80;94.30
19152;DHT22;9708;53.114;9.388;2023-02-28T12:36:36;16.40;93.60
19152;DHT22;9708;53.114;9.388;2023-02-28T12:39:10;15.90;94.60
19152;DHT22;9708;53.114;9.388;2023-02-28T12:41:41;16.20;93.90
19152;DHT22;9708;53.114;9.388;2023-02-28T12:44:11;16.30;94.30
19152;DHT22;9708;53.114;9.388;2023-02-28T12:46:41;16.20;96.50
19152;DHT22;9708;53.114;9.388;2023-02-28T12:49:13;15.50;93.80
19152;DHT22;9708;53.114;9.388;2023-02-28T12:51:44;14.60;94.90
19152;DHT22;9708;53.114;9.388;2023-02-28T12:54:18;15.10;93.70
19152;DHT22;9708;53.114;9.388;2023-02-28T12:56:52;14.40;96.00
19152;DHT22;9708;53.114;9.388;2023-02-28T12:59:26;14.40;94.50
19152;DHT22;9708;53.114;9.388;2023-02-28T13:02:30;14.50;93.70
19152;DHT22;9708;53.114;9.388;2023-02-28T13:05:22;14.10;94.20
19152;DHT22;9708;53.114;9.388;2023-02-28T13:08:03;13.20;95.10
19152;DHT22;9708;53.114;9.388;2023-02-28T13:10:42;13.50;96.50
19152;DHT22;9708;53.114;9.388;2023-02-28T13:13:15;13.30;95.50
19152;DHT22;9708;53.114;9.388;2023-02-28T13:16:01;13.90;95.30
19152;DHT22;9708;53.114;9.388;2023-02-28T13:18:34;13.20;96.90
19152;DHT22;9708;53.114;9.388;2023-02-28T13:21:04;12.50;94.90
19152;DHT22;9708;53.114;9.388;2023-02-28T13:23:58;12.20;94.30
19152;DHT22;9708;53.114;9.388;2023-02-28T13:29:34;11.90;95.50
19152;DHT22;9708;53.114;9.388;2023-02-28T13:32:31;11.60;96.10
19152;DHT22;9708;53.114;9.388;2023-02-28T13:38:17;11.90;99.60
19152;DHT22;9708;53.114;9.388;2023-02-28T13:40:44;12.60;97.10
19152;DHT22;9708;53.114;9.388;2023-02-28T13:43:10;11.70;95.70
19152;DHT22;9708;53.114;9.388;2023-02-28T13:45:37;11.10;97.10
19152;DHT22;9708;53.114;9.388;2023-02-28T13:48:16;11.10;97.10
19152;DHT22;9708;53.114;9.388;2023-02-28T13:50:44;11.40;96.80
19152;DHT22;9708;53.114;9.388;2023-02-28T13:53:39;11.20;97.10
19152;DHT22;9708;53.114;9.388;2023-02-28T13:56:23;10.60;98.30
19152;DHT22;9708;53.114;9.388;2023-02-28T13:58:55;10.80;98.00
19152;DHT22;9708;53.114;9.388;2023-02-28T14:01:43;10.80;97.70
19152;DHT22;9708;53.114;9.388;2023-02-28T14:07:30;11.00;97.10
19152;DHT22;9708;53.114;9.388;2023-02-28T14:10:01;11.10;97.00
19152;DHT22;9708;53.114;9.388;2023-02-28T14:12:55;11.10;97.30
19152;DHT22;9708;53.114;9.388;2023-02-28T14:18:21;11.60;97.90
19152;DHT22;9708;53.114;9.388;2023-02-28T14:20:51;11.50;97.40
19152;DHT22;9708;53.114;9.388;2023-02-28T14:23:26;11.10;97.00
19152;DHT22;9708;53.114;9.388;2023-02-28T14:26:05;11.10;96.90
19152;DHT22;9708;53.114;9.388;2023-02-28T14:28:47;11.10;98.60
19152;DHT22;9708;53.114;9.388;2023-02-28T14:31:21;11.10;99.20
19152;DHT22;9708;53.114;9.388;2023-02-28T14:34:04;11.50;98.80
19152;DHT22;9708;53.114;9.388;2023-02-28T14:36:33;11.30;98.20
19152;DHT22;9708;53.114;9.388;2023-02-28T14:39:05;11.20;99.20
19152;DHT22;9708;53.114;9.388;2023-02-28T14:41:36;11.30;99.90
19152;DHT22;9708;53.114;9.388;2023-02-28T14:44:14;11.10;97.90
19152;DHT22;9708;53.114;9.388;2023-02-28T14:46:42;10.70;97.10
19152;DHT22;9708;53.114;9.388;2023-02-28T14:49:15;10.70;97.80
19152;DHT22;9708;53.114;9.388;2023-02-28T14:51:43;10.50;96.90
19152;DHT22;9708;53.114;9.388;2023-02-28T14:54:13;10.60;98.30
19152;DHT22;9708;53.114;9.388;2023-02-28T14:56:42;10.60;97.90
19152;DHT22;9708;53.114;9.388;2023-02-28T14:59:25;10.40;98.10
19152;DHT22;9708;53.114;9.388;2023-02-28T15:01:52;10.30;97.10
19152;DHT22;9708;53.114;9.388;2023-02-28T15:04:33;9.90;99.50
19152;DHT22;9708;53.114;9.388;2023-02-28T15:07:10;9.40;99.60
19152;DHT22;9708;53.114;9.388;2023-02-28T15:09:37;9.10;99.80
19152;DHT22;9708;53.114;9.388;2023-02-28T15:12:06;9.10;99.90
19152;DHT22;9708;53.114;9.388;2023-02-28T15:14:34;9.10;99.90
19152;DHT22;9708;53.114;9.388;2023-02-28T15:17:08;9.10;99.90
19152;DHT22;9708;53.114;9.388;2023-02-28T15:19:50;9.00;99.90
19152;DHT22;9708;53.114;9.388;2023-02-28T15:22:25;8.90;99.90
19152;DHT22;9708;53.114;9.388;2023-02-28T15:24:55;8.70;99.90
19152;DHT22;9708;53.114;9.388;2023-02-28T15:27:26;8.40;99.90
19152;DHT22;9708;53.114;9.388;2023-02-28T15:29:55;8.30;99.90
19152;DHT22;9708;53.114;9.388;2023-02-28T15:32:28;8.30;99.90
19152;DHT22;9708;53.114;9.388;2023-02-28T15:34:56;8.20;99.90
19152;DHT22;9708;53.114;9.388;2023-02-28T15:37:28;8.10;99.90
19152;DHT22;9708;53.114;9.388;2023-02-28T15:39:58;7.90;99.90
19152;DHT22;9708;53.114;9.388;2023-02-28T15:42:29;8.00;99.90
19152;DHT22;9708;53.114;9.388;2023-02-28T15:44:56;8.00;99.90
19152;DHT22;9708;53.114;9.388;2023-02-28T15:47:27;7.90;99.90
19152;DHT22;9708;53.114;9.388;2023-02-28T15:49:57;7.90;99.90
19152;DHT22;9708;53.114;9.388;2023-02-28T15:52:28;7.80;99.90
19152;DHT22;9708;53.114;9.388;2023-02-28T15:54:57;7.70;99.90
19152;DHT22;9708;53.114;9.388;2023-02-28T15:57:27;7.80;99.90
19152;DHT22;9708;53.114;9.388;2023-02-28T15:59:57;7.50;99.90
19152;DHT22;9708;53.114;9.388;2023-02-28T16:02:31;7.30;99.90
19152;DHT22;9708;53.114;9.388;2023-02-28T16:05:01;7.30;99.90
19152;DHT22;9708;53.114;9.388;2023-02-28T16:07:29;7.30;99.90
19152;DHT22;9708;53.114;9.388;2023-02-28T16:09:56;7.60;99.90
19152;DHT22;9708;53.114;9.388;2023-02-28T16:12:27;7.50;99.90
19152;DHT22;9708;53.114;9.388;2023-02-28T16:14:58;7.40;99.90
19152;DHT22;9708;53.114;9.388;2023-02-28T16:17:28;7.30;99.90
19152;DHT22;9708;53.114;9.388;2023-02-28T16:19:56;7.30;99.90
19152;DHT22;9708;53.114;9.388;2023-02-28T16:22:23;7.20;99.90
19152;DHT22;9708;53.114;9.388;2023-02-28T16:24:50;7.00;99.90
19152;DHT22;9708;53.114;9.388;2023-02-28T16:27:20;6.90;99.90
19152;DHT22;9708;53.114;9.388;2023-02-28T16:29:47;6.70;99.90
19152;DHT22;9708;53.114;9.388;2023-02-28T16:32:16;6.90;99.90
19152;DHT22;9708;53.114;9.388;2023-02-28T16:34:43;6.70;99.90
19152;DHT22;9708;53.114;9.388;2023-02-28T16:37:13;6.50;99.90
19152;DHT22;9708;53.114;9.388;2023-02-28T16:39:40;6.30;99.90
19152;DHT22;9708;53.114;9.388;2023-02-28T16:42:12;6.30;99.90
19152;DHT22;9708;53.114;9.388;2023-02-28T16:44:40;6.20;99.90
19152;DHT22;9708;53.114;9.388;2023-02-28T16:47:09;6.10;99.90
19152;DHT22;9708;53.114;9.388;2023-02-28T16:49:38;5.90;99.90
19152;DHT22;9708;53.114;9.388;2023-02-28T16:52:07;5.70;99.90
19152;DHT22;9708;53.114;9.388;2023-02-28T16:54:34;5.50;99.90
19152;DHT22;9708;53.114;9.388;2023-02-28T16:57:01;5.20;99.90
19152;DHT22;9708;53.114;9.388;2023-02-28T16:59:28;5.00;99.90
19152;DHT22;9708;53.114;9.388;2023-02-28T17:01:56;4.90;99.90
19152;DHT22;9708;53.114;9.388;2023-02-28T17:04:23;4.70;99.90